createdAt,value
2022-10-16T00:03:12.511Z,1.10
2022-10-16T00:08:14.938Z,3.73
2022-10-16T00:13:18.808Z,1.47
2022-10-16T00:18:21.100Z,2.43
2022-10-16T00:23:25.090Z,1.57
2022-10-16T00:28:28.091Z,1.90
2022-10-16T00:33:30.430Z,1.33
2022-10-16T00:38:33.134Z,1.20
2022-10-16T00:43:47.453Z,1.80
2022-10-16T00:49:12.831Z,0.70
2022-10-16T00:54:28.553Z,0.80
2022-10-16T00:59:40.330Z,1.33
2022-10-16T01:04:53.493Z,1.57
2022-10-16T01:10:18.851Z,0.87
2022-10-16T01:15:43.235Z,1.43
2022-10-16T01:20:54.718Z,0.60
2022-10-16T01:26:06.077Z,0.60
2022-10-16T01:31:10.959Z,0.87
2022-10-16T01:36:20.329Z,2.20
2022-10-16T01:41:29.132Z,0.93
2022-10-16T01:46:33.062Z,1.90
2022-10-16T01:51:36.690Z,0.50
2022-10-16T01:56:40.619Z,0.70
2022-10-16T02:01:49.734Z,0.93
2022-10-16T02:06:53.682Z,0.70
2022-10-16T02:12:00.147Z,1.03
2022-10-16T02:17:02.485Z,1.27
2022-10-16T02:22:09.050Z,0.63
2022-10-16T02:27:16.424Z,0.90
2022-10-16T02:32:22.144Z,1.23
2022-10-16T02:37:25.545Z,0.83
2022-10-16T02:42:36.443Z,0.63
2022-10-16T02:47:39.114Z,0.70
2022-10-16T02:52:41.384Z,1.07
2022-10-16T02:57:44.039Z,1.70
2022-10-16T03:02:47.525Z,1.03
2022-10-16T03:07:49.812Z,0.63
2022-10-16T03:12:52.186Z,0.80
2022-10-16T03:17:54.578Z,1.00
2022-10-16T03:22:57.085Z,1.23
2022-10-16T03:27:59.550Z,1.10
2022-10-16T03:33:01.839Z,0.90
2022-10-16T03:38:04.107Z,0.93
2022-10-16T03:43:06.563Z,1.87
2022-10-16T03:48:08.951Z,1.53
2022-10-16T03:53:11.230Z,0.90
2022-10-16T03:58:13.780Z,0.80
2022-10-16T04:03:16.262Z,1.27
2022-10-16T04:08:19.245Z,0.70
2022-10-16T04:13:21.703Z,1.93
2022-10-16T04:18:24.057Z,0.97
2022-10-16T04:23:26.358Z,1.87
2022-10-16T04:28:29.339Z,1.27
2022-10-16T04:33:31.689Z,1.63
2022-10-16T04:38:34.211Z,0.93
2022-10-16T04:43:36.536Z,1.00
2022-10-16T04:48:38.987Z,1.03
2022-10-16T04:53:41.345Z,1.70
2022-10-16T04:58:43.987Z,1.00
2022-10-16T05:03:46.759Z,1.37
2022-10-16T05:08:49.017Z,0.87
2022-10-16T05:13:55.040Z,1.17
2022-10-16T05:19:22.564Z,1.20
2022-10-16T05:24:20.518Z,2.10
2022-10-16T05:29:24.055Z,1.30
2022-10-16T05:34:26.304Z,1.67
2022-10-16T05:39:28.697Z,1.47
2022-10-16T05:44:31.117Z,1.10
2022-10-16T05:49:36.730Z,2.80
2022-10-16T05:54:41.557Z,1.10
2022-10-16T05:59:44.038Z,1.00
2022-10-16T06:04:46.374Z,1.87
2022-10-16T06:09:54.876Z,4.60
2022-10-16T06:14:57.262Z,1.20
2022-10-16T06:19:59.550Z,2.03
2022-10-16T06:25:01.916Z,1.70
2022-10-16T06:30:04.713Z,1.57
2022-10-16T06:35:07.380Z,1.07
2022-10-16T06:40:09.804Z,2.13
2022-10-16T06:45:12.217Z,1.23
2022-10-16T06:50:14.685Z,1.20
2022-10-16T06:55:17.933Z,2.10
2022-10-16T07:00:20.354Z,1.50
2022-10-16T07:05:22.771Z,1.93
2022-10-16T07:10:25.247Z,1.47
2022-10-16T07:15:28.130Z,1.40
2022-10-16T07:20:31.368Z,1.70
2022-10-16T07:25:33.715Z,2.67
2022-10-16T07:30:38.076Z,3.73
2022-10-16T07:35:49.562Z,4.33
2022-10-16T07:41:03.827Z,3.60
2022-10-16T07:46:06.621Z,4.37
2022-10-16T07:51:10.567Z,3.57
2022-10-16T07:56:13.326Z,3.87
2022-10-16T08:01:17.462Z,3.20
2022-10-16T08:06:25.104Z,2.57
2022-10-16T08:11:30.106Z,2.43
2022-10-16T08:16:32.461Z,1.60
2022-10-16T08:21:34.845Z,2.00
2022-10-16T08:26:37.161Z,3.73
2022-10-16T08:31:39.591Z,1.53
2022-10-16T08:36:42.373Z,1.80
2022-10-16T08:42:03.574Z,2.77
2022-10-16T08:47:14.282Z,3.07
2022-10-16T08:52:16.576Z,1.77
2022-10-16T08:57:24.316Z,2.60
2022-10-16T09:02:45.719Z,1.20
2022-10-16T09:08:03.774Z,1.60
2022-10-16T09:13:38.642Z,1.53
2022-10-16T09:18:56.718Z,1.00
2022-10-16T09:24:09.207Z,0.87
2022-10-16T09:29:18.029Z,1.90
2022-10-16T09:34:29.574Z,1.77
2022-10-16T09:39:44.468Z,1.23
2022-10-16T09:44:52.105Z,0.90
2022-10-16T09:50:02.925Z,1.07
2022-10-16T09:55:17.361Z,1.43
2022-10-16T10:00:21.104Z,1.57
2022-10-16T10:05:29.402Z,1.23
2022-10-16T10:10:34.377Z,1.40
2022-10-16T10:15:42.470Z,2.10
2022-10-16T10:20:59.079Z,1.87
2022-10-16T10:26:19.262Z,0.90
2022-10-16T10:31:50.542Z,1.13
2022-10-16T10:37:20.545Z,2.00
2022-10-16T10:42:57.927Z,1.40
2022-10-16T10:48:07.107Z,2.00
2022-10-16T10:53:51.070Z,2.17
2022-10-16T10:59:08.911Z,1.77
2022-10-16T11:04:32.843Z,1.00
2022-10-16T11:09:42.035Z,1.30
2022-10-16T11:15:05.081Z,2.60
2022-10-16T11:20:31.041Z,1.70
2022-10-16T11:25:34.846Z,1.53
2022-10-16T11:30:53.988Z,1.10
2022-10-16T11:36:09.162Z,1.17
2022-10-16T11:41:23.606Z,1.03
2022-10-16T11:46:28.384Z,1.93
2022-10-16T11:51:37.575Z,1.70
2022-10-16T11:56:43.218Z,1.50
2022-10-16T12:01:52.394Z,1.90
2022-10-16T12:07:11.313Z,0.53
2022-10-16T12:12:36.955Z,1.73
2022-10-16T12:17:39.873Z,1.03
2022-10-16T12:23:20.326Z,0.97
2022-10-16T12:28:28.918Z,0.60
2022-10-16T12:33:34.872Z,1.00
2022-10-16T12:38:49.252Z,0.83
2022-10-16T12:43:51.696Z,1.03
2022-10-16T12:49:09.167Z,0.73
2022-10-16T12:54:23.535Z,1.07
2022-10-16T12:59:54.994Z,0.60
2022-10-16T13:05:20.139Z,1.13
2022-10-16T13:10:36.145Z,0.90
2022-10-16T13:16:01.124Z,0.47
2022-10-16T13:21:35.502Z,0.80
2022-10-16T13:27:06.093Z,0.83
2022-10-16T13:32:12.874Z,0.73
2022-10-16T13:37:33.367Z,1.10
2022-10-16T13:42:35.810Z,0.73
2022-10-16T13:47:38.268Z,0.60
2022-10-16T13:52:40.826Z,1.37
2022-10-16T13:57:43.874Z,0.90
2022-10-16T14:02:51.905Z,1.03
2022-10-16T14:07:56.051Z,1.77
2022-10-16T14:13:01.545Z,0.73
2022-10-16T14:18:05.138Z,0.67
2022-10-16T14:23:30.880Z,2.27
2022-10-16T14:28:33.409Z,1.07
2022-10-16T14:33:35.946Z,1.23
2022-10-16T14:38:40.624Z,0.83
2022-10-16T14:43:52.477Z,0.73
2022-10-16T14:49:03.326Z,0.87
2022-10-16T14:54:06.062Z,2.07
2022-10-16T14:59:33.065Z,1.00
2022-10-16T15:04:35.430Z,1.50
2022-10-16T15:09:37.775Z,1.50
2022-10-16T15:14:40.255Z,1.80
2022-10-16T15:19:42.650Z,1.00
2022-10-16T15:24:45.084Z,1.60
2022-10-16T15:29:47.549Z,1.13
2022-10-16T15:34:49.906Z,1.70
2022-10-16T15:39:52.350Z,2.60
2022-10-16T15:44:54.911Z,2.23
2022-10-16T15:49:57.919Z,4.03
2022-10-16T15:55:00.443Z,4.07
2022-10-16T16:00:05.326Z,2.67
2022-10-16T16:05:14.271Z,1.70
2022-10-16T16:10:17.265Z,5.53
2022-10-16T16:15:21.753Z,3.63
2022-10-16T16:20:24.354Z,3.63
2022-10-16T16:25:26.809Z,2.57
2022-10-16T16:30:29.830Z,3.87
2022-10-16T16:35:32.228Z,3.70
2022-10-16T16:40:34.573Z,2.73
2022-10-16T16:45:37.018Z,3.77
2022-10-16T16:50:39.311Z,4.67
2022-10-16T16:55:41.747Z,3.23
2022-10-16T17:00:56.623Z,4.73
2022-10-16T17:06:04.041Z,2.57
2022-10-16T17:11:07.275Z,2.60
2022-10-16T17:16:10.721Z,3.73
2022-10-16T17:21:13.529Z,4.33
2022-10-16T17:26:17.869Z,3.60
2022-10-16T17:31:26.403Z,3.30
2022-10-16T17:36:30.887Z,1.77
2022-10-16T17:41:33.803Z,2.13
2022-10-16T17:46:40.090Z,1.47
2022-10-16T17:51:44.163Z,1.53
2022-10-16T17:56:47.978Z,4.00
2022-10-16T18:01:50.398Z,1.77
2022-10-16T18:06:53.112Z,2.37
2022-10-16T18:12:02.323Z,1.23
2022-10-16T18:17:06.121Z,2.33
2022-10-16T18:22:08.766Z,2.67
2022-10-16T18:27:11.155Z,1.90
2022-10-16T18:32:13.450Z,2.73
2022-10-16T18:37:16.427Z,2.77
2022-10-16T18:42:19.005Z,3.43
2022-10-16T18:47:21.383Z,3.07
2022-10-16T18:52:26.644Z,5.50
2022-10-16T18:57:30.861Z,4.50
2022-10-16T19:07:43.134Z,2.83
2022-10-16T19:12:45.486Z,3.57
2022-10-16T19:17:47.785Z,3.23
2022-10-16T19:22:58.794Z,2.30
2022-10-16T19:28:05.872Z,3.07
2022-10-16T19:33:08.659Z,1.60
2022-10-16T19:38:11.141Z,1.60
2022-10-16T19:43:13.583Z,3.43
2022-10-16T19:48:16.061Z,2.63
2022-10-16T19:53:18.405Z,3.37
2022-10-16T19:58:21.276Z,4.47
2022-10-16T20:03:25.731Z,3.53
2022-10-16T20:08:28.113Z,2.47
2022-10-16T20:13:31.342Z,2.83
2022-10-16T20:18:34.148Z,2.13
2022-10-16T20:23:36.468Z,2.70
2022-10-16T20:28:40.917Z,3.77
2022-10-16T20:33:43.601Z,3.13
2022-10-16T20:38:46.404Z,3.33
2022-10-16T20:43:50.385Z,2.40
2022-10-16T20:48:54.245Z,2.50
2022-10-16T20:53:58.554Z,3.07
2022-10-16T20:59:01.371Z,2.47
2022-10-16T21:04:06.342Z,2.47
2022-10-16T21:09:09.184Z,2.20
2022-10-16T21:14:13.044Z,6.70
2022-10-16T21:19:16.951Z,7.10
2022-10-16T21:24:19.621Z,2.70
2022-10-16T21:29:22.604Z,2.40
2022-10-16T21:34:25.727Z,3.33
2022-10-16T21:39:28.208Z,6.60
2022-10-16T21:44:30.957Z,4.30
2022-10-16T21:49:33.311Z,2.63
2022-10-16T21:54:36.497Z,3.23
2022-10-16T21:59:38.762Z,4.40
2022-10-16T22:04:41.071Z,4.10
2022-10-16T22:09:43.336Z,7.57
2022-10-16T22:14:46.454Z,6.17
2022-10-16T22:19:48.740Z,5.43
2022-10-16T22:24:50.969Z,3.90
2022-10-16T22:29:53.357Z,4.47
2022-10-16T22:34:55.908Z,4.73
2022-10-16T22:40:00.913Z,5.40
2022-10-16T22:45:03.778Z,5.27
2022-10-16T22:50:06.423Z,5.50
2022-10-16T22:55:09.212Z,4.67
2022-10-16T23:00:15.365Z,6.23
2022-10-16T23:05:17.650Z,8.37
2022-10-16T23:10:22.181Z,6.67
2022-10-16T23:15:24.715Z,5.63
2022-10-16T23:20:27.106Z,6.70
2022-10-16T23:25:29.660Z,5.03
2022-10-16T23:30:32.028Z,5.10
2022-10-16T23:35:34.340Z,5.50
2022-10-16T23:40:36.618Z,5.80
2022-10-16T23:45:38.978Z,5.03
2022-10-16T23:50:41.581Z,5.73
2022-10-16T23:55:43.958Z,5.47
